Latest Weather Observations for Low Isles

IDQ60801

Issued at 2:02 pm EST Saturday 21 January 2017 (issued every 30 minutes, with the page automatically refreshed every 10 minutes)

About weather observations | Map of weather stations | Latest weather observations for QLD | Other Formats
Station Details ID: 031037 Name: LOW ISLES LIGHTHOUSE Lat: -16.38 Lon: 145.56 Height: 2.9 m
Data from the previous 72 hours. | See also: Recent months at Low Isles
Date/Time
EST
Temp
°C
App
Temp
°C
Dew
Point
°C
Rel
Hum
%
Delta-T
°C
Wind Press
QNH
hPa
Press
MSL
hPa
Rain since
9am
mm
Dir  Spd
km/h
Gust
km/h
Spd
kts
Gust
kts
21/02:00pm 35.2 38.3 25.7 58 6.8 NE 20 24 11 13 1006.6 - 0.0
21/01:30pm 35.3 38.5 25.8 58 6.8 NE 20 24 11 13 1007.1 - 0.0
21/01:00pm 34.9 38.0 25.4 58 6.8 NNE 19 22 10 12 1007.4 - 0.0
21/12:30pm 34.6 37.9 25.7 60 6.4 NNE 19 20 10 11 1007.7 - 0.0
21/12:00pm 33.9 37.8 26.1 63 5.6 NNE 17 20 9 11 1008.1 1008.0 0.0
21/11:30am 33.7 37.9 25.9 63 5.6 NNE 15 19 8 10 1008.6 - 0.0
21/11:00am 32.8 36.8 25.1 64 5.4 N 13 17 7 9 1009.1 - 0.0
21/10:30am 32.0 36.5 24.6 65 5.2 N 9 13 5 7 1009.5 - 0.0
21/10:00am 31.4 36.2 24.5 67 4.8 NW 7 9 4 5 1009.8 - 0.0
21/09:30am 30.3 35.1 24.2 70 4.2 NW 6 9 3 5 1009.7 - 0.0
21/09:00am 29.3 34.1 24.4 75 3.4 W 7 9 4 5 1009.8 1009.7 0.0
21/08:30am 28.4 32.7 24.2 78 2.9 W 9 11 5 6 1009.8 - 0.0
21/08:00am 28.1 32.9 24.1 79 2.8 W 6 7 3 4 1009.6 - 0.0
21/07:30am 27.9 31.9 23.7 78 2.9 WSW 9 13 5 7 1009.5 - 0.0
21/07:00am 27.6 30.5 23.8 80 2.6 W 15 17 8 9 1009.3 - 0.0
21/06:30am 28.0 31.4 24.0 79 2.8 WSW 13 15 7 8 1009.1 - 0.0
21/06:00am 27.9 31.6 23.3 76 3.2 WSW 9 11 5 6 1008.6 1008.5 0.0
21/05:30am 28.0 30.9 23.8 78 2.9 WSW 15 19 8 10 1008.4 - 0.0
21/05:00am 27.7 30.9 23.7 79 2.7 WSW 13 15 7 8 1007.9 - 0.0
21/04:30am 27.8 31.8 23.8 79 2.8 WSW 9 15 5 8 1007.8 - 0.0
21/04:00am 27.7 31.4 23.9 80 2.6 W 11 15 6 8 1007.5 - 0.0
21/03:30am 27.7 31.1 24.1 81 2.5 WNW 13 17 7 9 1007.4 - 0.0
21/03:00am 27.8 32.1 24.2 81 2.5 W 9 11 5 6 1007.2 1007.1 0.0
21/02:30am 28.0 30.2 24.0 79 2.8 WNW 19 22 10 12 1007.3 - 0.0
21/02:00am 28.4 33.0 24.8 81 2.5 W 9 13 5 7 1007.3 - 0.0
21/01:30am 28.3 31.9 24.3 79 2.8 W 13 15 7 8 1007.6 - 0.0
21/01:00am 28.4 31.9 24.8 81 2.5 W 15 17 8 9 1007.8 - 0.0
21/12:30am 28.6 31.8 25.0 81 2.5 W 17 19 9 10 1008.1 - 0.0
21/12:00am 28.8 32.3 24.8 79 2.8 WSW 15 17 8 9 1008.2 1008.1 0.0
 
Date/Time
EST
Temp
°C
App
Temp
°C
Dew
Point
°C
Rel
Hum
%
Delta-T
°C
Wind Press
QNH
hPa
Press
MSL
hPa
Rain since
9am
mm
Dir  Spd
km/h
Gust
km/h
Spd
kts
Gust
kts
20/11:30pm 28.1 31.9 22.8 73 3.6 NE 7 11 4 6 1008.3 - 0.0
20/11:00pm 28.1 31.7 22.3 70 3.9 NNE 7 11 4 6 1008.8 - 0.0
20/10:30pm 28.3 31.8 22.8 72 3.7 N 9 11 5 6 1009.0 - 0.0
20/10:00pm 28.5 31.4 22.5 70 4.1 NNE 11 13 6 7 1008.6 - 0.0
20/09:30pm 29.0 32.2 23.0 70 4.1 NE 11 15 6 8 1008.5 - 0.0
20/09:00pm 29.1 31.8 22.8 69 4.3 NNE 13 15 7 8 1008.4 1008.3 0.0
20/08:30pm 29.0 31.8 23.0 70 4.1 NNE 13 15 7 8 1008.2 - 0.0
20/08:00pm 29.1 32.3 23.1 70 4.1 NNE 11 15 6 8 1008.0 - 0.0
20/07:30pm 29.2 31.7 23.2 70 4.1 NNE 15 17 8 9 1007.8 - 0.0
20/07:00pm 29.6 31.9 23.5 69 4.2 NNE 17 20 9 11 1007.1 - 0.0
20/06:30pm 30.1 33.0 23.8 69 4.4 NE 15 19 8 10 1007.0 - 0.0
20/06:00pm 30.0 32.7 22.9 65 4.9 NE 13 15 7 8 1006.7 1006.6 0.0
20/05:30pm 31.3 34.1 23.7 64 5.3 NE 15 19 8 10 1006.2 - 0.0
20/05:00pm 32.1 34.7 23.9 62 5.7 NNE 17 20 9 11 1006.0 - 0.0
20/04:30pm 33.3 35.8 24.5 60 6.2 NE 19 22 10 12 1005.8 - 0.0
20/04:00pm 33.8 36.1 24.4 58 6.6 NE 20 22 11 12 1005.8 - 0.0
20/03:30pm 34.3 36.1 23.6 53 7.5 NE 20 24 11 13 1006.0 - 0.0
20/03:00pm 34.2 36.2 23.9 55 7.2 NE 20 24 11 13 1006.2 1006.1 0.0
20/02:30pm 34.2 35.6 22.9 51 7.8 NE 20 24 11 13 1006.5 - 0.0
20/02:00pm 33.9 35.0 22.3 50 7.9 NNE 20 22 11 12 1007.0 - 0.0
20/01:30pm 35.1 36.8 23.4 50 8.1 NNE 20 24 11 13 1007.3 - 0.0
20/01:00pm 34.8 36.7 22.8 49 8.3 NE 17 20 9 11 1007.4 - 0.0
20/12:30pm 34.5 36.3 21.9 48 8.6 NE 15 19 8 10 1007.6 - 0.0
20/12:00pm 33.8 36.7 23.8 56 7.0 NNE 15 17 8 9 1008.0 1007.9 0.0
20/11:30am 32.7 36.2 22.2 54 7.2 NE 7 11 4 6 1008.5 - 0.0
20/11:00am 31.4 34.3 21.0 54 7.0 WSW 7 9 4 5 1009.1 - 0.0
20/10:30am 30.1 32.7 21.2 59 6.0 WSW 9 11 5 6 1009.4 - 0.0
20/10:00am 29.3 31.9 22.0 64 4.9 WSW 11 15 6 8 1009.8 - 0.0
20/09:30am 28.6 31.0 22.3 68 4.3 W 13 17 7 9 1010.0 - 0.0
20/09:00am 28.0 29.9 22.7 73 3.6 W 17 22 9 12 1010.1 1010.0 0.0
20/08:30am 27.6 28.3 21.6 70 4.0 WSW 20 24 11 13 1010.1 - 0.0
20/08:00am 27.5 29.0 22.0 72 3.7 WSW 17 20 9 11 1009.8 - 0.0
20/07:30am 27.2 28.1 21.5 71 3.8 W 19 24 10 13 1009.4 - 0.0
20/07:00am 26.9 27.0 21.2 71 3.8 W 22 26 12 14 1009.2 - 0.0
20/06:30am 26.9 27.1 21.4 72 3.7 W 22 26 12 14 1008.8 - 0.0
20/06:00am 26.6 27.0 21.8 75 3.2 W 22 26 12 14 1008.2 1008.1 0.0
20/05:30am 26.8 29.1 23.5 82 2.3 W 17 20 9 11 1007.7 - 0.0
20/05:00am 26.8 28.6 23.5 82 2.3 WNW 20 26 11 14 1007.4 - 0.0
20/04:30am 26.7 28.3 23.2 81 2.4 WNW 20 24 11 13 1006.9 - 0.0
20/04:00am 26.6 27.7 23.7 84 2.0 WNW 24 26 13 14 1006.8 - 0.0
20/03:30am 26.9 27.5 23.4 81 2.4 WNW 26 30 14 16 1006.8 - 0.0
20/03:00am 27.0 27.3 23.0 79 2.7 WNW 26 30 14 16 1007.0 1006.9 0.0
20/02:30am 26.8 27.7 23.3 81 2.4 WNW 24 28 13 15 1007.1 - 0.0
20/02:00am 27.0 28.6 22.8 78 2.8 WNW 19 24 10 13 1007.3 - 0.0
20/01:30am 27.3 30.5 24.4 84 2.0 W 15 17 8 9 1007.5 - 0.0
20/01:00am 27.2 29.9 23.4 80 2.6 W 15 19 8 10 1007.4 - 0.0
20/12:30am 27.3 29.2 22.7 76 3.1 W 17 19 9 10 1007.9 - 0.0
20/12:00am 28.1 31.0 23.9 78 2.9 W 15 17 8 9 1008.5 1008.4 0.0
 
Date/Time
EST
Temp
°C
App
Temp
°C
Dew
Point
°C
Rel
Hum
%
Delta-T
°C
Wind Press
QNH
hPa
Press
MSL
hPa
Rain since
9am
mm
Dir  Spd
km/h
Gust
km/h
Spd
kts
Gust
kts
19/11:30pm 28.1 30.7 23.9 78 2.9 W 17 17 9 9 1008.8 - 0.0
19/11:00pm 28.4 32.8 24.4 79 2.8 WSW 9 13 5 7 1009.0 - 0.0
19/10:30pm 28.0 33.2 24.2 80 2.6 N 4 9 2 5 1009.0 - 0.0
19/10:00pm 27.6 31.8 23.2 77 3.0 NNE 6 7 3 4 1008.9 - 0.0
19/09:30pm 27.6 31.5 23.0 76 3.1 ENE 7 9 4 5 1008.8 - 0.0
19/09:00pm 27.6 31.2 23.0 76 3.1 E 9 13 5 7 1008.7 1008.6 0.0
19/08:30pm 27.9 31.3 23.3 76 3.1 E 11 13 6 7 1008.7 - 0.0
19/08:00pm 28.0 31.0 22.7 73 3.6 E 11 13 6 7 1008.6 - 0.0
19/07:30pm 28.4 31.5 22.9 72 3.7 E 11 13 6 7 1008.4 - 0.0
19/07:00pm 28.9 32.2 22.6 69 4.3 E 9 13 5 7 1008.0 - 0.0
19/06:30pm 29.8 32.9 22.8 66 4.8 E 11 17 6 9 1007.7 - 0.0
19/06:00pm 30.1 33.2 22.8 65 5.0 E 11 15 6 8 1007.3 1007.2 0.0
19/05:30pm 30.7 33.1 22.3 61 5.7 E 13 17 7 9 1007.1 - 0.0
19/05:00pm 31.5 33.8 22.8 60 6.0 E 15 19 8 10 1007.0 - 0.0
19/04:30pm 32.3 34.6 22.7 57 6.6 E 15 20 8 11 1007.0 - 0.0
19/04:00pm 32.8 34.2 22.6 55 7.0 E 19 22 10 12 1007.2 - 0.0
19/03:30pm 33.0 34.5 23.0 55 6.9 E 20 26 11 14 1007.2 - 0.0
19/03:00pm 33.3 34.7 21.8 51 7.8 E 17 24 9 13 1007.6 1007.5 0.0
19/02:30pm 33.5 35.5 22.9 53 7.3 E 17 22 9 12 1007.9 - 0.0
19/02:00pm 33.4 35.5 23.1 54 7.1 E 17 24 9 13 1008.3 - 0.0
19/01:30pm 33.6 35.6 23.0 54 7.3 E 17 20 9 11 1008.5 - 0.0
19/01:00pm 33.7 35.5 22.5 52 7.7 E 17 20 9 11 1008.9 - 0.0
19/12:30pm 33.2 35.5 22.0 51 7.6 ENE 13 17 7 9 1009.2 - 0.0
19/12:00pm 32.9 36.3 22.0 52 7.4 E 7 13 4 7 1009.5 1009.4 0.0
19/11:30am 31.8 35.5 22.5 58 6.4 S 7 11 4 6 1009.7 - 0.0
19/11:00am 31.5 35.1 23.1 61 5.8 SSE 9 11 5 6 1010.1 - 0.0
19/10:30am 30.5 34.7 23.2 65 5.0 SSE 6 9 3 5 1010.5 - 0.0
19/10:00am 30.2 34.4 23.4 67 4.7 S 7 9 4 5 1010.7 - 0.0
19/09:30am 28.5 31.8 23.2 73 3.6 WSW 11 13 6 7 1011.0 - 0.0
19/09:00am 27.7 30.4 23.5 78 2.9 WSW 15 17 8 9 1011.3 1011.2 0.2
19/08:30am 27.4 29.7 23.4 79 2.7 W 17 20 9 11 1011.4 - 0.2
19/08:00am 27.4 29.5 23.8 81 2.5 SW 19 22 10 12 1011.1 - 0.2
19/07:30am 27.1 30.0 23.8 82 2.3 SW 15 19 8 10 1011.0 - 0.2
19/07:00am 26.9 29.7 23.6 82 2.3 SW 15 17 8 9 1011.0 - 0.2
19/06:30am 26.9 29.4 23.8 83 2.1 WSW 17 19 9 10 1010.9 - 0.2
19/06:00am 27.3 30.2 24.4 84 2.0 SW 17 20 9 11 1010.8 1010.7 0.2
19/05:30am 26.9 29.3 23.6 82 2.3 WSW 17 20 9 11 1010.4 - 0.2
19/05:00am 27.0 29.3 24.5 86 1.7 WSW 20 24 11 13 1010.1 - 0.2
19/04:30am 26.9 28.9 24.0 84 2.0 W 20 22 11 12 1009.7 - 0.2
19/04:00am 26.7 29.2 23.8 84 2.0 WSW 17 20 9 11 1009.6 - 0.2
19/03:30am 26.8 30.6 24.1 85 1.9 WSW 11 15 6 8 1009.6 - 0.2
19/03:00am 27.0 30.2 24.3 85 1.9 WSW 15 19 8 10 1009.9 1009.8 0.2
19/02:30am 27.3 31.0 24.6 85 1.9 W 13 15 7 8 1009.9 - 0.2
19/02:00am 27.3 30.3 24.0 82 2.3 WSW 15 17 8 9 1010.1 - 0.2
19/01:30am 27.3 30.0 24.2 83 2.1 W 17 17 9 9 1010.4 - 0.2
19/01:00am 27.4 30.7 24.5 84 2.0 W 15 17 8 9 1010.5 - 0.2
19/12:30am 27.6 30.6 24.6 84 2.1 WSW 17 20 9 11 1010.6 - 0.2
19/12:00am 27.8 31.0 25.0 85 2.0 WSW 17 20 9 11 1010.9 1010.8 0.2
 
Date/Time
EST
Temp
°C
App
Temp
°C
Dew
Point
°C
Rel
Hum
%
Delta-T
°C
Wind Press
QNH
hPa
Press
MSL
hPa
Rain since
9am
mm
Dir  Spd
km/h
Gust
km/h
Spd
kts
Gust
kts
18/11:30pm 27.8 30.2 24.2 81 2.5 WSW 19 20 10 11 1011.0 - 0.2
18/11:00pm 27.9 30.7 24.9 84 2.1 WSW 19 22 10 12 1011.4 - 0.2
18/10:30pm 27.8 31.4 25.0 85 2.0 W 15 19 8 10 1011.6 - 0.2
18/10:00pm 27.3 31.5 23.1 78 2.9 ESE 6 7 3 4 1011.6 - 0.2
18/09:30pm 27.4 31.6 23.2 78 2.9 SE 6 9 3 5 1011.7 - 0.2
18/09:00pm 27.5 31.3 24.1 82 2.3 SE 11 15 6 8 1011.5 1011.4 0.2
18/08:30pm 27.3 29.9 24.0 82 2.3 ENE 17 20 9 11 1011.1 - 0.2
18/08:00pm 27.1 28.4 24.0 83 2.1 E 24 32 13 17 1011.1 - 0.2
18/07:30pm 27.6 27.3 24.2 82 2.4 ESE 33 41 18 22 1010.7 - 0.2
18/07:00pm 28.6 30.5 24.4 78 2.9 SE 22 32 12 17 1010.4 - 0.2
18/06:30pm 29.0 31.6 24.6 77 3.1 E 19 24 10 13 1009.9 - 0.2
18/06:00pm 29.3 31.6 24.4 75 3.4 E 20 28 11 15 1009.8 1009.7 0.2
18/05:30pm 30.0 32.0 24.6 73 3.8 ESE 22 28 12 15 1009.5 - 0.2
18/05:00pm 30.5 32.8 24.4 70 4.3 E 20 28 11 15 1009.4 - 0.2
18/04:30pm 31.0 33.0 24.6 68 4.5 E 22 30 12 16 1009.3 - 0.2
18/04:00pm 30.9 32.7 24.8 70 4.3 ESE 24 30 13 16 1009.3 - 0.2
18/03:30pm 31.7 33.7 24.6 66 5.0 ESE 22 28 12 15 1009.4 - 0.2
18/03:00pm 32.1 34.9 25.2 67 4.9 ESE 20 28 11 15 1009.7 1009.6 0.2
18/02:30pm 31.6 34.6 24.7 67 4.8 ESE 17 24 9 13 1009.9 - 0.2

Other Formats:

Comma delimited format used in spreadsheet applications
http://www.bom.gov.au/fwo/IDQ60801/IDQ60801.94285.axf

JavaScript Object Notation format (JSON) in row-major order
http://www.bom.gov.au/fwo/IDQ60801/IDQ60801.94285.json